sensor_id;sensor_type;location;lat;lon;timestamp;temperature;humidity
831;DHT22;397;50.564;7.272;2023-06-22T00:02:24;22.40;99.90
831;DHT22;397;50.564;7.272;2023-06-22T00:04:51;22.40;99.90
831;DHT22;397;50.564;7.272;2023-06-22T00:07:18;22.40;99.90
831;DHT22;397;50.564;7.272;2023-06-22T00:09:46;22.40;99.90
831;DHT22;397;50.564;7.272;2023-06-22T00:12:13;22.30;99.90
831;DHT22;397;50.564;7.272;2023-06-22T00:14:41;22.30;99.90
831;DHT22;397;50.564;7.272;2023-06-22T00:17:08;22.40;99.90
831;DHT22;397;50.564;7.272;2023-06-22T00:19:36;22.40;99.90
831;DHT22;397;50.564;7.272;2023-06-22T00:22:05;22.30;99.90
831;DHT22;397;50.564;7.272;2023-06-22T00:24:33;22.30;99.90
831;DHT22;397;50.564;7.272;2023-06-22T00:27:00;22.40;99.90
831;DHT22;397;50.564;7.272;2023-06-22T00:29:28;22.40;99.90
831;DHT22;397;50.564;7.272;2023-06-22T00:31:55;22.30;99.90
831;DHT22;397;50.564;7.272;2023-06-22T00:34:23;22.30;99.90
831;DHT22;397;50.564;7.272;2023-06-22T00:36:50;22.40;99.90
831;DHT22;397;50.564;7.272;2023-06-22T00:39:18;22.40;99.90
831;DHT22;397;50.564;7.272;2023-06-22T00:41:45;22.50;99.90
831;DHT22;397;50.564;7.272;2023-06-22T00:44:13;22.40;99.90
831;DHT22;397;50.564;7.272;2023-06-22T00:46:40;22.50;99.90
831;DHT22;397;50.564;7.272;2023-06-22T00:49:08;22.50;99.90
831;DHT22;397;50.564;7.272;2023-06-22T00:51:36;22.50;99.90
831;DHT22;397;50.564;7.272;2023-06-22T00:54:05;22.50;99.90
831;DHT22;397;50.564;7.272;2023-06-22T00:56:32;22.50;99.90
831;DHT22;397;50.564;7.272;2023-06-22T00:59:02;22.50;99.90
831;DHT22;397;50.564;7.272;2023-06-22T01:01:30;22.30;99.90
831;DHT22;397;50.564;7.272;2023-06-22T01:03:57;22.30;99.90
831;DHT22;397;50.564;7.272;2023-06-22T01:06:31;22.40;99.90
831;DHT22;397;50.564;7.272;2023-06-22T01:09:10;22.30;99.90
831;DHT22;397;50.564;7.272;2023-06-22T01:11:39;22.40;99.90
831;DHT22;397;50.564;7.272;2023-06-22T01:14:17;22.40;99.90
831;DHT22;397;50.564;7.272;2023-06-22T01:16:44;22.40;99.90
831;DHT22;397;50.564;7.272;2023-06-22T01:22:00;22.40;99.90
831;DHT22;397;50.564;7.272;2023-06-22T01:24:32;22.20;99.90
831;DHT22;397;50.564;7.272;2023-06-22T01:29:55;22.30;99.90
831;DHT22;397;50.564;7.272;2023-06-22T01:32:23;22.10;99.90
831;DHT22;397;50.564;7.272;2023-06-22T01:34:51;22.00;99.90
831;DHT22;397;50.564;7.272;2023-06-22T01:37:19;22.10;99.90
831;DHT22;397;50.564;7.272;2023-06-22T01:39:47;22.00;99.90
831;DHT22;397;50.564;7.272;2023-06-22T01:42:14;21.90;99.90
831;DHT22;397;50.564;7.272;2023-06-22T01:44:43;21.90;99.90
831;DHT22;397;50.564;7.272;2023-06-22T01:47:11;22.00;99.90
831;DHT22;397;50.564;7.272;2023-06-22T01:49:41;22.00;99.90
831;DHT22;397;50.564;7.272;2023-06-22T01:52:09;22.00;99.90
831;DHT22;397;50.564;7.272;2023-06-22T01:54:38;22.10;99.90
831;DHT22;397;50.564;7.272;2023-06-22T01:57:05;22.10;99.90
831;DHT22;397;50.564;7.272;2023-06-22T01:59:36;22.10;99.90
831;DHT22;397;50.564;7.272;2023-06-22T02:02:07;22.20;99.90
831;DHT22;397;50.564;7.272;2023-06-22T02:04:39;22.30;99.90
831;DHT22;397;50.564;7.272;2023-06-22T02:07:09;22.30;99.90
831;DHT22;397;50.564;7.272;2023-06-22T02:09:38;22.30;99.90
831;DHT22;397;50.564;7.272;2023-06-22T02:12:07;22.20;99.90
831;DHT22;397;50.564;7.272;2023-06-22T02:14:36;22.20;99.90
831;DHT22;397;50.564;7.272;2023-06-22T02:17:05;22.20;99.90
831;DHT22;397;50.564;7.272;2023-06-22T02:19:36;22.10;99.90
831;DHT22;397;50.564;7.272;2023-06-22T02:22:04;22.10;99.90
831;DHT22;397;50.564;7.272;2023-06-22T02:24:32;22.10;99.90
831;DHT22;397;50.564;7.272;2023-06-22T02:27:00;22.10;99.90
831;DHT22;397;50.564;7.272;2023-06-22T02:29:29;22.00;99.90
831;DHT22;397;50.564;7.272;2023-06-22T02:31:56;21.80;99.90
831;DHT22;397;50.564;7.272;2023-06-22T02:34:24;21.90;99.90
831;DHT22;397;50.564;7.272;2023-06-22T02:36:51;22.00;99.90
831;DHT22;397;50.564;7.272;2023-06-22T02:39:23;22.00;99.90
831;DHT22;397;50.564;7.272;2023-06-22T02:41:52;22.10;99.90
831;DHT22;397;50.564;7.272;2023-06-22T02:44:20;22.00;99.90
831;DHT22;397;50.564;7.272;2023-06-22T02:46:48;22.00;99.90
831;DHT22;397;50.564;7.272;2023-06-22T02:49:16;22.10;99.90
831;DHT22;397;50.564;7.272;2023-06-22T02:51:48;22.00;99.90
831;DHT22;397;50.564;7.272;2023-06-22T02:54:16;21.90;99.90
831;DHT22;397;50.564;7.272;2023-06-22T02:56:44;21.90;99.90
831;DHT22;397;50.564;7.272;2023-06-22T02:59:11;21.80;99.90
831;DHT22;397;50.564;7.272;2023-06-22T03:01:39;21.80;99.90
831;DHT22;397;50.564;7.272;2023-06-22T03:04:07;21.70;99.90
831;DHT22;397;50.564;7.272;2023-06-22T03:06:35;21.80;99.90
831;DHT22;397;50.564;7.272;2023-06-22T03:09:04;21.80;99.90
831;DHT22;397;50.564;7.272;2023-06-22T03:11:33;21.80;99.90
831;DHT22;397;50.564;7.272;2023-06-22T03:14:01;21.90;99.90
831;DHT22;397;50.564;7.272;2023-06-22T03:16:28;21.80;99.90
831;DHT22;397;50.564;7.272;2023-06-22T03:18:56;21.80;99.90
831;DHT22;397;50.564;7.272;2023-06-22T03:21:24;21.70;99.90
831;DHT22;397;50.564;7.272;2023-06-22T03:23:51;21.70;99.90
831;DHT22;397;50.564;7.272;2023-06-22T03:26:19;21.80;99.90
831;DHT22;397;50.564;7.272;2023-06-22T03:28:47;21.80;99.90
831;DHT22;397;50.564;7.272;2023-06-22T03:31:14;21.80;99.90
831;DHT22;397;50.564;7.272;2023-06-22T03:33:42;21.80;99.90
831;DHT22;397;50.564;7.272;2023-06-22T03:36:09;21.60;99.90
831;DHT22;397;50.564;7.272;2023-06-22T03:38:37;21.40;99.90
831;DHT22;397;50.564;7.272;2023-06-22T03:41:05;21.30;99.90
831;DHT22;397;50.564;7.272;2023-06-22T03:43:32;21.30;99.90
831;DHT22;397;50.564;7.272;2023-06-22T03:46:00;21.20;99.90
831;DHT22;397;50.564;7.272;2023-06-22T03:48:27;21.30;99.90
831;DHT22;397;50.564;7.272;2023-06-22T03:50:55;21.30;99.90
831;DHT22;397;50.564;7.272;2023-06-22T03:53:22;21.50;99.90
831;DHT22;397;50.564;7.272;2023-06-22T03:55:51;21.60;99.90
831;DHT22;397;50.564;7.272;2023-06-22T03:58:20;21.60;99.90
831;DHT22;397;50.564;7.272;2023-06-22T04:00:50;21.70;99.90
831;DHT22;397;50.564;7.272;2023-06-22T04:03:18;21.70;99.90
831;DHT22;397;50.564;7.272;2023-06-22T04:05:46;21.70;99.90
831;DHT22;397;50.564;7.272;2023-06-22T04:08:15;21.70;99.90
831;DHT22;397;50.564;7.272;2023-06-22T04:10:43;21.80;99.90
831;DHT22;397;50.564;7.272;2023-06-22T04:13:11;21.80;99.90
831;DHT22;397;50.564;7.272;2023-06-22T04:15:38;21.60;99.90
831;DHT22;397;50.564;7.272;2023-06-22T04:18:06;21.70;99.90
831;DHT22;397;50.564;7.272;2023-06-22T04:20:33;21.80;99.90
831;DHT22;397;50.564;7.272;2023-06-22T04:23:01;21.90;99.90
831;DHT22;397;50.564;7.272;2023-06-22T04:25:28;22.00;99.90
831;DHT22;397;50.564;7.272;2023-06-22T04:27:56;22.10;99.90
831;DHT22;397;50.564;7.272;2023-06-22T04:30:23;22.30;99.90
831;DHT22;397;50.564;7.272;2023-06-22T04:32:51;22.40;99.90
831;DHT22;397;50.564;7.272;2023-06-22T04:35:25;22.40;99.90
831;DHT22;397;50.564;7.272;2023-06-22T04:37:53;22.40;99.90
831;DHT22;397;50.564;7.272;2023-06-22T04:40:24;22.50;99.90
831;DHT22;397;50.564;7.272;2023-06-22T04:42:51;22.50;99.90
831;DHT22;397;50.564;7.272;2023-06-22T04:45:20;22.50;99.90
831;DHT22;397;50.564;7.272;2023-06-22T04:47:48;22.50;99.90
831;DHT22;397;50.564;7.272;2023-06-22T04:50:15;22.50;99.90
831;DHT22;397;50.564;7.272;2023-06-22T04:52:44;23.20;99.90
831;DHT22;397;50.564;7.272;2023-06-22T04:55:12;23.20;99.90
831;DHT22;397;50.564;7.272;2023-06-22T04:57:39;23.10;99.90
831;DHT22;397;50.564;7.272;2023-06-22T05:00:08;24.30;99.90
831;DHT22;397;50.564;7.272;2023-06-22T05:02:39;24.80;99.90
831;DHT22;397;50.564;7.272;2023-06-22T05:05:07;25.90;99.90
831;DHT22;397;50.564;7.272;2023-06-22T05:07:35;26.40;99.90
831;DHT22;397;50.564;7.272;2023-06-22T05:10:04;27.10;99.90
831;DHT22;397;50.564;7.272;2023-06-22T05:12:32;27.10;99.90
831;DHT22;397;50.564;7.272;2023-06-22T05:14:59;27.70;99.90
831;DHT22;397;50.564;7.272;2023-06-22T05:17:28;28.50;99.90
831;DHT22;397;50.564;7.272;2023-06-22T05:19:55;28.60;99.90
831;DHT22;397;50.564;7.272;2023-06-22T05:22:23;27.90;99.90
831;DHT22;397;50.564;7.272;2023-06-22T05:24:50;27.70;99.90
831;DHT22;397;50.564;7.272;2023-06-22T05:27:18;27.90;99.90
831;DHT22;397;50.564;7.272;2023-06-22T05:29:45;27.50;99.90
831;DHT22;397;50.564;7.272;2023-06-22T05:32:13;27.10;99.90
831;DHT22;397;50.564;7.272;2023-06-22T05:34:40;26.20;99.90
831;DHT22;397;50.564;7.272;2023-06-22T05:37:08;25.60;99.90
831;DHT22;397;50.564;7.272;2023-06-22T05:39:36;26.40;99.90
831;DHT22;397;50.564;7.272;2023-06-22T05:42:07;26.40;99.90
831;DHT22;397;50.564;7.272;2023-06-22T05:44:34;27.80;99.90
831;DHT22;397;50.564;7.272;2023-06-22T05:47:04;28.80;99.90
831;DHT22;397;50.564;7.272;2023-06-22T05:49:31;28.90;99.90
831;DHT22;397;50.564;7.272;2023-06-22T05:51:59;29.20;99.90
831;DHT22;397;50.564;7.272;2023-06-22T05:54:30;29.60;99.90
831;DHT22;397;50.564;7.272;2023-06-22T05:56:58;29.30;99.90
831;DHT22;397;50.564;7.272;2023-06-22T05:59:25;28.40;99.90
831;DHT22;397;50.564;7.272;2023-06-22T06:01:53;27.40;99.90
831;DHT22;397;50.564;7.272;2023-06-22T06:04:20;27.00;99.90
831;DHT22;397;50.564;7.272;2023-06-22T06:06:48;26.80;99.90
831;DHT22;397;50.564;7.272;2023-06-22T06:09:15;26.50;99.90
831;DHT22;397;50.564;7.272;2023-06-22T06:11:43;26.20;99.90
831;DHT22;397;50.564;7.272;2023-06-22T06:14:10;26.20;99.90
831;DHT22;397;50.564;7.272;2023-06-22T06:16:38;26.20;99.90
831;DHT22;397;50.564;7.272;2023-06-22T06:19:05;26.20;99.90
831;DHT22;397;50.564;7.272;2023-06-22T06:21:33;25.80;99.90
831;DHT22;397;50.564;7.272;2023-06-22T06:24:00;25.90;99.90
831;DHT22;397;50.564;7.272;2023-06-22T06:26:28;25.90;99.90
831;DHT22;397;50.564;7.272;2023-06-22T06:28:56;25.80;99.90
831;DHT22;397;50.564;7.272;2023-06-22T06:31:24;25.60;99.90
831;DHT22;397;50.564;7.272;2023-06-22T06:33:53;25.40;99.90
831;DHT22;397;50.564;7.272;2023-06-22T06:36:21;25.40;99.90
831;DHT22;397;50.564;7.272;2023-06-22T06:38:48;25.40;99.90
831;DHT22;397;50.564;7.272;2023-06-22T06:41:16;25.40;99.90
831;DHT22;397;50.564;7.272;2023-06-22T06:43:44;25.20;99.90
831;DHT22;397;50.564;7.272;2023-06-22T06:46:11;25.00;99.90
831;DHT22;397;50.564;7.272;2023-06-22T06:48:39;24.60;99.90
831;DHT22;397;50.564;7.272;2023-06-22T06:51:06;24.50;99.90
831;DHT22;397;50.564;7.272;2023-06-22T06:53:37;24.90;99.90
831;DHT22;397;50.564;7.272;2023-06-22T06:56:05;25.00;99.90
831;DHT22;397;50.564;7.272;2023-06-22T06:58:33;25.10;99.90
831;DHT22;397;50.564;7.272;2023-06-22T07:01:00;25.00;99.90
831;DHT22;397;50.564;7.272;2023-06-22T07:03:28;25.10;99.90
831;DHT22;397;50.564;7.272;2023-06-22T07:05:55;25.70;99.90
831;DHT22;397;50.564;7.272;2023-06-22T07:08:23;26.30;99.90
831;DHT22;397;50.564;7.272;2023-06-22T07:10:51;26.70;99.90
831;DHT22;397;50.564;7.272;2023-06-22T07:13:19;26.80;99.90
831;DHT22;397;50.564;7.272;2023-06-22T07:15:46;26.60;99.90
831;DHT22;397;50.564;7.272;2023-06-22T07:18:14;26.50;99.90
831;DHT22;397;50.564;7.272;2023-06-22T07:20:41;26.40;99.90
831;DHT22;397;50.564;7.272;2023-06-22T07:23:09;26.80;99.90
831;DHT22;397;50.564;7.272;2023-06-22T07:25:36;27.10;99.90
831;DHT22;397;50.564;7.272;2023-06-22T07:28:06;27.40;99.90
831;DHT22;397;50.564;7.272;2023-06-22T07:30:34;27.70;99.90
831;DHT22;397;50.564;7.272;2023-06-22T07:33:02;27.90;99.90
831;DHT22;397;50.564;7.272;2023-06-22T07:35:33;28.10;99.90
831;DHT22;397;50.564;7.272;2023-06-22T07:38:01;28.30;99.90
831;DHT22;397;50.564;7.272;2023-06-22T07:40:30;28.30;99.90
831;DHT22;397;50.564;7.272;2023-06-22T07:42:57;28.20;99.90
831;DHT22;397;50.564;7.272;2023-06-22T07:45:24;28.10;99.90
831;DHT22;397;50.564;7.272;2023-06-22T07:47:52;28.30;99.90
831;DHT22;397;50.564;7.272;2023-06-22T07:50:20;28.50;99.90
831;DHT22;397;50.564;7.272;2023-06-22T07:52:47;28.40;99.90
831;DHT22;397;50.564;7.272;2023-06-22T07:55:15;28.40;99.90
831;DHT22;397;50.564;7.272;2023-06-22T07:57:42;28.30;99.90
831;DHT22;397;50.564;7.272;2023-06-22T08:00:10;28.30;99.90
831;DHT22;397;50.564;7.272;2023-06-22T08:02:43;28.50;99.90
831;DHT22;397;50.564;7.272;2023-06-22T08:05:12;28.60;99.90
831;DHT22;397;50.564;7.272;2023-06-22T08:07:40;28.70;99.90
831;DHT22;397;50.564;7.272;2023-06-22T08:10:11;28.80;99.90
831;DHT22;397;50.564;7.272;2023-06-22T08:12:40;28.80;99.90
831;DHT22;397;50.564;7.272;2023-06-22T08:15:08;28.80;99.90
831;DHT22;397;50.564;7.272;2023-06-22T08:17:39;28.90;99.90
831;DHT22;397;50.564;7.272;2023-06-22T08:20:08;29.00;99.90
831;DHT22;397;50.564;7.272;2023-06-22T08:22:41;29.10;99.90
831;DHT22;397;50.564;7.272;2023-06-22T08:25:09;29.10;99.90
831;DHT22;397;50.564;7.272;2023-06-22T08:27:37;28.70;99.90
831;DHT22;397;50.564;7.272;2023-06-22T08:30:06;28.50;99.90
831;DHT22;397;50.564;7.272;2023-06-22T08:32:33;28.60;99.90
831;DHT22;397;50.564;7.272;2023-06-22T08:35:01;28.70;99.90
831;DHT22;397;50.564;7.272;2023-06-22T08:37:29;28.80;99.90
831;DHT22;397;50.564;7.272;2023-06-22T08:40:06;28.90;99.90
831;DHT22;397;50.564;7.272;2023-06-22T08:42:32;28.80;99.90
831;DHT22;397;50.564;7.272;2023-06-22T08:44:59;28.50;99.90
831;DHT22;397;50.564;7.272;2023-06-22T08:47:30;28.30;99.90
831;DHT22;397;50.564;7.272;2023-06-22T08:49:57;28.50;99.90
831;DHT22;397;50.564;7.272;2023-06-22T08:52:25;28.70;99.90
831;DHT22;397;50.564;7.272;2023-06-22T08:54:52;29.00;99.90
831;DHT22;397;50.564;7.272;2023-06-22T08:57:21;29.10;99.90
831;DHT22;397;50.564;7.272;2023-06-22T08:59:49;29.10;99.90
831;DHT22;397;50.564;7.272;2023-06-22T09:02:18;29.20;99.90
831;DHT22;397;50.564;7.272;2023-06-22T09:04:48;29.10;99.90
831;DHT22;397;50.564;7.272;2023-06-22T09:07:17;29.60;99.90
831;DHT22;397;50.564;7.272;2023-06-22T09:09:47;29.80;99.90
831;DHT22;397;50.564;7.272;2023-06-22T09:12:14;29.50;99.90
831;DHT22;397;50.564;7.272;2023-06-22T09:14:42;29.30;99.90
831;DHT22;397;50.564;7.272;2023-06-22T09:17:09;29.20;99.90
831;DHT22;397;50.564;7.272;2023-06-22T09:19:37;29.20;99.90
831;DHT22;397;50.564;7.272;2023-06-22T09:22:05;29.40;99.90
831;DHT22;397;50.564;7.272;2023-06-22T09:24:33;28.90;99.90
831;DHT22;397;50.564;7.272;2023-06-22T09:27:00;29.20;99.90
831;DHT22;397;50.564;7.272;2023-06-22T09:29:28;29.30;99.90
831;DHT22;397;50.564;7.272;2023-06-22T09:31:55;29.10;99.90
831;DHT22;397;50.564;7.272;2023-06-22T09:34:23;29.00;99.90
831;DHT22;397;50.564;7.272;2023-06-22T09:36:50;29.20;99.90
831;DHT22;397;50.564;7.272;2023-06-22T09:39:21;29.00;99.90
831;DHT22;397;50.564;7.272;2023-06-22T09:41:48;28.90;99.90
831;DHT22;397;50.564;7.272;2023-06-22T09:44:16;29.00;99.90
831;DHT22;397;50.564;7.272;2023-06-22T09:46:44;28.40;99.90
831;DHT22;397;50.564;7.272;2023-06-22T09:49:11;28.10;99.90
831;DHT22;397;50.564;7.272;2023-06-22T09:51:39;28.00;99.90
831;DHT22;397;50.564;7.272;2023-06-22T09:54:06;27.70;99.90
831;DHT22;397;50.564;7.272;2023-06-22T09:56:34;27.80;99.90
831;DHT22;397;50.564;7.272;2023-06-22T09:59:01;27.70;99.90
831;DHT22;397;50.564;7.272;2023-06-22T10:01:29;27.50;99.90
831;DHT22;397;50.564;7.272;2023-06-22T10:03:56;27.60;99.90
831;DHT22;397;50.564;7.272;2023-06-22T10:06:24;27.60;99.90
831;DHT22;397;50.564;7.272;2023-06-22T10:08:52;27.50;99.90
831;DHT22;397;50.564;7.272;2023-06-22T10:11:20;27.40;99.90
831;DHT22;397;50.564;7.272;2023-06-22T10:13:49;27.30;99.90
831;DHT22;397;50.564;7.272;2023-06-22T10:16:16;27.30;99.90
831;DHT22;397;50.564;7.272;2023-06-22T10:18:44;27.40;99.90
831;DHT22;397;50.564;7.272;2023-06-22T10:21:11;27.30;99.90
831;DHT22;397;50.564;7.272;2023-06-22T10:23:39;27.10;99.90
831;DHT22;397;50.564;7.272;2023-06-22T10:26:06;27.10;99.90
831;DHT22;397;50.564;7.272;2023-06-22T10:28:34;27.10;99.90
831;DHT22;397;50.564;7.272;2023-06-22T10:31:01;27.10;99.90
831;DHT22;397;50.564;7.272;2023-06-22T10:33:29;27.20;99.90
831;DHT22;397;50.564;7.272;2023-06-22T10:35:56;27.20;99.90
831;DHT22;397;50.564;7.272;2023-06-22T10:38:24;27.10;99.90
831;DHT22;397;50.564;7.272;2023-06-22T10:40:51;27.00;99.90
831;DHT22;397;50.564;7.272;2023-06-22T10:43:19;26.90;99.90
831;DHT22;397;50.564;7.272;2023-06-22T10:45:46;26.70;99.90
831;DHT22;397;50.564;7.272;2023-06-22T10:48:14;26.50;99.90
831;DHT22;397;50.564;7.272;2023-06-22T10:50:42;26.10;99.90
831;DHT22;397;50.564;7.272;2023-06-22T10:53:10;26.00;99.90
831;DHT22;397;50.564;7.272;2023-06-22T10:55:37;25.60;99.90
831;DHT22;397;50.564;7.272;2023-06-22T10:58:05;25.50;99.90
831;DHT22;397;50.564;7.272;2023-06-22T11:00:34;25.40;99.90
831;DHT22;397;50.564;7.272;2023-06-22T11:03:01;25.10;99.90
831;DHT22;397;50.564;7.272;2023-06-22T11:05:29;24.70;99.90
831;DHT22;397;50.564;7.272;2023-06-22T11:07:56;24.30;99.90
831;DHT22;397;50.564;7.272;2023-06-22T11:10:24;23.80;99.90
831;DHT22;397;50.564;7.272;2023-06-22T11:12:52;23.60;99.90
831;DHT22;397;50.564;7.272;2023-06-22T11:15:21;23.60;99.90
831;DHT22;397;50.564;7.272;2023-06-22T11:17:49;23.20;99.90
831;DHT22;397;50.564;7.272;2023-06-22T11:20:17;23.10;99.90
831;DHT22;397;50.564;7.272;2023-06-22T11:22:44;22.80;99.90
831;DHT22;397;50.564;7.272;2023-06-22T11:25:11;22.50;99.90
831;DHT22;397;50.564;7.272;2023-06-22T11:27:39;22.50;99.90
831;DHT22;397;50.564;7.272;2023-06-22T11:30:07;22.30;99.90
831;DHT22;397;50.564;7.272;2023-06-22T11:32:35;22.50;99.90
831;DHT22;397;50.564;7.272;2023-06-22T11:35:02;22.80;99.90
831;DHT22;397;50.564;7.272;2023-06-22T11:37:30;23.10;99.90
831;DHT22;397;50.564;7.272;2023-06-22T11:39:57;22.80;99.90
831;DHT22;397;50.564;7.272;2023-06-22T11:42:25;22.90;99.90
831;DHT22;397;50.564;7.272;2023-06-22T11:44:52;23.40;99.90
831;DHT22;397;50.564;7.272;2023-06-22T11:47:20;23.60;99.90
831;DHT22;397;50.564;7.272;2023-06-22T11:49:47;23.80;99.90
831;DHT22;397;50.564;7.272;2023-06-22T11:52:15;23.40;99.90
831;DHT22;397;50.564;7.272;2023-06-22T11:54:44;23.60;99.90
831;DHT22;397;50.564;7.272;2023-06-22T11:57:12;24.00;99.90
831;DHT22;397;50.564;7.272;2023-06-22T11:59:39;23.80;99.90
831;DHT22;397;50.564;7.272;2023-06-22T12:02:07;23.70;99.90
831;DHT22;397;50.564;7.272;2023-06-22T12:04:35;23.90;99.90
831;DHT22;397;50.564;7.272;2023-06-22T12:07:04;24.00;99.90
831;DHT22;397;50.564;7.272;2023-06-22T12:09:31;24.50;99.90
831;DHT22;397;50.564;7.272;2023-06-22T12:11:59;24.50;99.90
831;DHT22;397;50.564;7.272;2023-06-22T12:14:26;24.80;99.90
831;DHT22;397;50.564;7.272;2023-06-22T12:16:54;24.90;99.90
831;DHT22;397;50.564;7.272;2023-06-22T12:19:22;24.80;99.90
831;DHT22;397;50.564;7.272;2023-06-22T12:21:49;25.10;99.90
831;DHT22;397;50.564;7.272;2023-06-22T12:24:17;25.30;99.90
831;DHT22;397;50.564;7.272;2023-06-22T12:26:44;25.20;99.90
831;DHT22;397;50.564;7.272;2023-06-22T12:29:12;24.90;99.90
831;DHT22;397;50.564;7.272;2023-06-22T12:31:39;24.90;99.90
831;DHT22;397;50.564;7.272;2023-06-22T12:34:08;24.90;99.90
831;DHT22;397;50.564;7.272;2023-06-22T12:36:35;25.30;99.90
831;DHT22;397;50.564;7.272;2023-06-22T12:39:03;25.60;99.90
831;DHT22;397;50.564;7.272;2023-06-22T12:41:30;25.70;99.90
831;DHT22;397;50.564;7.272;2023-06-22T12:43:58;25.60;99.90
831;DHT22;397;50.564;7.272;2023-06-22T12:46:25;25.80;99.90
831;DHT22;397;50.564;7.272;2023-06-22T12:48:53;26.10;99.90
831;DHT22;397;50.564;7.272;2023-06-22T12:51:21;26.00;99.90
831;DHT22;397;50.564;7.272;2023-06-22T12:53:49;25.70;99.90
831;DHT22;397;50.564;7.272;2023-06-22T12:56:22;25.60;99.90
831;DHT22;397;50.564;7.272;2023-06-22T12:58:50;25.40;99.90
831;DHT22;397;50.564;7.272;2023-06-22T13:01:17;25.40;99.90
831;DHT22;397;50.564;7.272;2023-06-22T13:03:45;25.20;99.90
831;DHT22;397;50.564;7.272;2023-06-22T13:06:12;25.30;99.90
831;DHT22;397;50.564;7.272;2023-06-22T13:08:39;25.20;99.90
831;DHT22;397;50.564;7.272;2023-06-22T13:11:07;25.10;99.90
831;DHT22;397;50.564;7.272;2023-06-22T13:13:35;25.30;99.90
831;DHT22;397;50.564;7.272;2023-06-22T13:16:02;25.50;99.90
831;DHT22;397;50.564;7.272;2023-06-22T13:18:30;25.60;99.90
831;DHT22;397;50.564;7.272;2023-06-22T13:20:58;25.70;99.90
831;DHT22;397;50.564;7.272;2023-06-22T13:23:26;25.80;99.90
831;DHT22;397;50.564;7.272;2023-06-22T13:25:54;25.90;99.90
831;DHT22;397;50.564;7.272;2023-06-22T13:28:21;26.00;99.90
831;DHT22;397;50.564;7.272;2023-06-22T13:30:49;26.00;99.90
831;DHT22;397;50.564;7.272;2023-06-22T13:33:16;25.90;99.90
831;DHT22;397;50.564;7.272;2023-06-22T13:35:44;26.00;99.90
831;DHT22;397;50.564;7.272;2023-06-22T13:38:11;26.00;99.90
831;DHT22;397;50.564;7.272;2023-06-22T13:40:39;26.10;99.90
831;DHT22;397;50.564;7.272;2023-06-22T13:43:06;26.30;99.90
831;DHT22;397;50.564;7.272;2023-06-22T13:45:34;26.40;99.90
831;DHT22;397;50.564;7.272;2023-06-22T13:48:02;26.70;99.90
831;DHT22;397;50.564;7.272;2023-06-22T13:50:29;26.90;99.90
831;DHT22;397;50.564;7.272;2023-06-22T13:52:57;27.00;99.90
831;DHT22;397;50.564;7.272;2023-06-22T13:55:24;27.00;99.90
831;DHT22;397;50.564;7.272;2023-06-22T13:57:53;26.90;99.90
831;DHT22;397;50.564;7.272;2023-06-22T14:00:20;26.70;99.90
831;DHT22;397;50.564;7.272;2023-06-22T14:02:48;26.60;99.90
831;DHT22;397;50.564;7.272;2023-06-22T14:05:15;26.60;99.90
831;DHT22;397;50.564;7.272;2023-06-22T14:07:43;26.50;99.90
831;DHT22;397;50.564;7.272;2023-06-22T14:10:10;26.40;99.90
831;DHT22;397;50.564;7.272;2023-06-22T14:12:38;26.20;99.90
831;DHT22;397;50.564;7.272;2023-06-22T14:15:06;26.10;99.90
831;DHT22;397;50.564;7.272;2023-06-22T14:17:54;25.80;99.90
831;DHT22;397;50.564;7.272;2023-06-22T14:20:21;25.60;99.90
831;DHT22;397;50.564;7.272;2023-06-22T14:22:49;25.40;99.90
831;DHT22;397;50.564;7.272;2023-06-22T14:25:16;25.40;99.90
831;DHT22;397;50.564;7.272;2023-06-22T14:27:44;25.30;99.90
831;DHT22;397;50.564;7.272;2023-06-22T14:30:12;25.30;99.90
831;DHT22;397;50.564;7.272;2023-06-22T14:32:39;25.10;99.90
831;DHT22;397;50.564;7.272;2023-06-22T14:35:07;25.00;99.90
831;DHT22;397;50.564;7.272;2023-06-22T14:37:54;24.60;99.90
831;DHT22;397;50.564;7.272;2023-06-22T14:40:21;24.50;99.90
831;DHT22;397;50.564;7.272;2023-06-22T14:42:49;24.10;99.90
831;DHT22;397;50.564;7.272;2023-06-22T14:45:16;23.80;99.90
831;DHT22;397;50.564;7.272;2023-06-22T14:47:44;23.60;99.90
831;DHT22;397;50.564;7.272;2023-06-22T14:50:11;23.50;99.90
831;DHT22;397;50.564;7.272;2023-06-22T14:52:39;23.00;99.90
831;DHT22;397;50.564;7.272;2023-06-22T14:55:06;22.90;99.90
831;DHT22;397;50.564;7.272;2023-06-22T14:57:34;22.80;99.90
831;DHT22;397;50.564;7.272;2023-06-22T15:00:02;22.70;99.90
831;DHT22;397;50.564;7.272;2023-06-22T15:02:29;22.60;99.90
831;DHT22;397;50.564;7.272;2023-06-22T15:04:57;22.70;99.90
831;DHT22;397;50.564;7.272;2023-06-22T15:07:24;22.60;99.90
831;DHT22;397;50.564;7.272;2023-06-22T15:09:52;22.50;99.90
831;DHT22;397;50.564;7.272;2023-06-22T15:12:19;22.50;99.90
831;DHT22;397;50.564;7.272;2023-06-22T15:14:47;22.50;99.90
831;DHT22;397;50.564;7.272;2023-06-22T15:17:14;22.40;99.90
831;DHT22;397;50.564;7.272;2023-06-22T15:19:42;22.50;99.90
831;DHT22;397;50.564;7.272;2023-06-22T15:22:09;22.40;99.90
831;DHT22;397;50.564;7.272;2023-06-22T15:24:37;22.40;99.90
831;DHT22;397;50.564;7.272;2023-06-22T15:27:04;22.30;99.90
831;DHT22;397;50.564;7.272;2023-06-22T15:29:32;22.20;99.90
831;DHT22;397;50.564;7.272;2023-06-22T15:32:00;22.30;99.90
831;DHT22;397;50.564;7.272;2023-06-22T15:34:28;22.30;99.90
831;DHT22;397;50.564;7.272;2023-06-22T15:36:56;22.30;99.90
831;DHT22;397;50.564;7.272;2023-06-22T15:39:23;22.10;99.90
831;DHT22;397;50.564;7.272;2023-06-22T15:41:53;22.10;99.90
831;DHT22;397;50.564;7.272;2023-06-22T15:44:21;22.00;99.90
831;DHT22;397;50.564;7.272;2023-06-22T15:46:49;22.10;99.90
831;DHT22;397;50.564;7.272;2023-06-22T15:49:17;22.10;99.90
831;DHT22;397;50.564;7.272;2023-06-22T15:51:45;22.20;99.90
831;DHT22;397;50.564;7.272;2023-06-22T15:54:12;22.20;99.90
831;DHT22;397;50.564;7.272;2023-06-22T15:56:40;22.10;99.90
831;DHT22;397;50.564;7.272;2023-06-22T15:59:07;22.10;99.90
831;DHT22;397;50.564;7.272;2023-06-22T16:01:35;22.30;99.90
831;DHT22;397;50.564;7.272;2023-06-22T16:04:03;22.40;99.90
831;DHT22;397;50.564;7.272;2023-06-22T16:06:31;22.40;99.90
831;DHT22;397;50.564;7.272;2023-06-22T16:08:58;22.40;99.90
831;DHT22;397;50.564;7.272;2023-06-22T16:11:26;22.50;99.90
831;DHT22;397;50.564;7.272;2023-06-22T16:13:53;22.50;99.90
831;DHT22;397;50.564;7.272;2023-06-22T16:16:21;22.60;99.90
831;DHT22;397;50.564;7.272;2023-06-22T16:18:48;22.70;99.90
831;DHT22;397;50.564;7.272;2023-06-22T16:21:16;22.60;99.90
831;DHT22;397;50.564;7.272;2023-06-22T16:23:43;22.60;99.90
831;DHT22;397;50.564;7.272;2023-06-22T16:26:11;22.70;99.90
831;DHT22;397;50.564;7.272;2023-06-22T16:28:38;22.90;99.90
831;DHT22;397;50.564;7.272;2023-06-22T16:31:06;23.00;99.90
831;DHT22;397;50.564;7.272;2023-06-22T16:33:33;23.10;99.90
831;DHT22;397;50.564;7.272;2023-06-22T16:36:01;23.10;99.90
831;DHT22;397;50.564;7.272;2023-06-22T16:38:28;23.10;99.90
831;DHT22;397;50.564;7.272;2023-06-22T16:40:56;23.10;99.90
831;DHT22;397;50.564;7.272;2023-06-22T16:43:24;23.10;99.90
831;DHT22;397;50.564;7.272;2023-06-22T16:45:51;23.10;99.90